Date,TemperatureHighF,TemperatureAvgF,TemperatureLowF,DewpointHighF,DewpointAvgF,DewpointLowF,HumidityHigh,HumidityAvg,HumidityLow,PressureMaxIn,PressureMinIn,WindSpeedMaxMPH,WindSpeedAvgMPH,GustSpeedMaxMPH,PrecipitationSumIn
2013-1-1,59,48,40,-100,-100,-100,0,0,100,0.00,40.00,0,-999,0,0.00
2013-1-2,55,46,37,-100,-100,-100,0,0,100,0.00,40.00,0,-999,0,0.00
2013-1-3,61,45,36,-100,-100,-100,0,0,100,0.00,40.00,0,-999,0,0.00
2013-1-4,59,45,36,-100,-100,-100,0,0,100,0.00,40.00,0,-999,0,0.00
2013-1-5,67,49,37,-100,-100,-100,0,0,100,0.00,40.00,0,-999,0,0.00
2013-1-6,58,53,50,-100,-100,-100,0,0,100,0.00,40.00,0,-999,0,0.00
2013-1-7,57,51,47,-100,-100,-100,0,0,100,0.00,40.00,0,-999,0,0.00
2013-1-8,62,53,42,-100,-100,-100,0,0,100,0.00,40.00,0,-999,0,0.00
2013-1-9,65,51,40,-100,-100,-100,0,0,100,0.00,40.00,0,-999,0,0.00
2013-1-10,56,50,44,-100,-100,-100,0,0,100,0.00,40.00,0,-999,0,0.00
2013-1-11,56,46,36,-100,-100,-100,0,0,100,0.00,40.00,0,-999,0,0.00
2013-1-12,55,49,39,-100,-100,-100,0,0,100,0.00,40.00,0,-999,0,0.00
2013-1-13,55,45,35,-100,-100,-100,0,0,100,0.00,40.00,0,-999,0,0.00
2013-1-14,55,39,29,-100,-100,-100,0,0,100,0.00,40.00,0,-999,0,0.00
2013-1-15,58,46,32,-100,-100,-100,0,0,100,0.00,40.00,0,-999,0,0.00
2013-1-16,63,45,29,-100,-100,-100,0,0,100,0.00,40.00,0,-999,0,0.00
2013-1-17,66,49,32,-100,-100,-100,0,0,100,0.00,40.00,0,-999,0,0.00
2013-1-18,69,47,33,-100,-100,-100,0,0,100,0.00,40.00,0,-999,0,0.00
2013-1-19,68,46,30,-100,-100,-100,0,0,100,0.00,40.00,0,-999,0,0.00
2013-1-20,68,50,36,-100,-100,-100,0,0,100,0.00,40.00,0,-999,0,0.00
2013-1-21,73,50,40,-100,-100,-100,0,0,100,0.00,40.00,0,-999,0,0.00
2013-1-22,70,52,38,-100,-100,-100,0,0,100,0.00,40.00,0,-999,0,0.00
2013-1-23,69,58,45,-100,-100,-100,0,0,100,0.00,40.00,0,-999,0,0.00
2013-1-24,69,60,56,-100,-100,-100,0,0,100,0.00,40.00,0,-999,0,0.00
2013-1-25,65,61,57,-100,-100,-100,0,0,100,0.00,40.00,0,-999,0,0.00
2013-1-26,65,61,58,-100,-100,-100,0,0,100,0.00,40.00,0,-999,0,0.00
2013-1-27,59,54,48,-100,-100,-100,0,0,100,0.00,40.00,0,-999,0,0.00
2013-1-28,60,52,41,-100,-100,-100,0,0,100,0.00,40.00,0,-999,0,0.00
2013-1-29,60,51,39,-100,-100,-100,0,0,100,0.00,40.00,0,-999,0,0.00
2013-1-30,68,52,40,-100,-100,-100,0,0,100,0.00,40.00,0,-999,0,0.00
2013-1-31,69,61,48,-100,-100,-100,0,0,100,0.00,40.00,0,-999,0,0.00
2013-2-1,68,54,42,-100,-100,-100,0,0,100,0.00,40.00,0,-999,0,0.00
2013-2-2,65,58,50,-100,-100,-100,0,0,100,0.00,40.00,0,-999,0,0.00
2013-2-3,65,55,45,-100,-100,-100,0,0,100,0.00,40.00,0,-999,0,0.00
2013-2-4,65,54,42,-100,-100,-100,0,0,100,0.00,40.00,0,-999,0,0.00
2013-2-5,65,53,43,-100,-100,-100,0,0,100,0.00,40.00,0,-999,0,0.00
2013-2-6,56,49,43,-100,-100,-100,0,0,100,0.00,40.00,0,-999,0,0.00
2013-2-7,58,45,37,-100,-100,-100,0,0,100,0.00,40.00,0,-999,0,0.00
2013-2-8,51,46,43,-100,-100,-100,0,0,100,0.00,40.00,0,-999,0,0.00
2013-2-9,53,44,40,-100,-100,-100,0,0,100,0.00,40.00,0,-999,0,0.00
2013-2-10,55,46,39,-100,-100,-100,0,0,100,0.00,40.00,0,-999,0,0.00
2013-2-11,59,49,37,-100,-100,-100,0,0,100,0.00,40.00,0,-999,0,0.00
2013-2-12,62,48,36,-100,-100,-100,0,0,100,0.00,40.00,0,-999,0,0.00
2013-2-13,63,48,35,-100,-100,-100,0,0,100,0.00,40.00,0,-999,0,0.00
2013-2-14,63,49,34,-100,-100,-100,0,0,100,0.00,40.00,0,-999,0,0.00
2013-2-15,69,54,35,-100,-100,-100,0,0,100,0.00,40.00,0,-999,0,0.00
2013-2-16,70,55,41,-100,-100,-100,0,0,100,0.00,40.00,0,-999,0,0.00
2013-2-17,68,51,38,-100,-100,-100,0,0,100,0.00,40.00,0,-999,0,0.00
2013-2-18,68,51,37,-100,-100,-100,0,0,100,0.00,40.00,0,-999,0,0.00
2013-2-19,51,46,39,-100,-100,-100,0,0,100,0.00,40.00,0,-999,0,0.00
2013-2-20,49,42,38,-100,-100,-100,0,0,100,0.00,40.00,0,-999,0,0.00
2013-2-21,54,44,36,-100,-100,-100,0,0,100,0.00,40.00,0,-999,0,0.00
2013-2-22,58,48,36,-100,-100,-100,0,0,100,0.00,40.00,0,-999,0,0.00
2013-2-23,59,44,34,-100,-100,-100,0,0,100,0.00,40.00,0,-999,0,0.00
2013-2-24,58,43,29,-100,-100,-100,0,0,100,0.00,40.00,0,-999,0,0.00
2013-2-25,62,49,32,-100,-100,-100,0,0,100,0.00,40.00,0,-999,0,0.00
2013-2-26,62,47,32,-100,-100,-100,0,0,100,0.00,40.00,0,-999,0,0.00
2013-2-27,65,51,34,-100,-100,-100,0,0,100,0.00,40.00,0,-999,0,0.00
2013-2-28,69,55,35,-100,-100,-100,0,0,100,0.00,40.00,0,-999,0,0.00
2013-3-1,72,56,39,-100,-100,-100,0,0,100,0.00,40.00,0,-999,0,0.00
2013-3-2,75,61,40,-100,-100,-100,0,0,100,0.00,40.00,0,-999,0,0.00
2013-3-3,67,62,54,-100,-100,-100,0,0,100,0.00,40.00,0,-999,0,0.00
2013-3-4,69,55,43,-100,-100,-100,0,0,100,0.00,40.00,0,-999,0,0.00
2013-3-5,70,54,40,-100,-100,-100,0,0,100,0.00,40.00,0,-999,0,0.00
2013-3-6,61,51,47,-100,-100,-100,0,0,100,0.00,40.00,0,-999,0,0.00
2013-3-7,58,51,45,-100,-100,-100,0,0,100,0.00,40.00,0,-999,0,0.00
2013-3-8,48,46,44,-100,-100,-100,0,0,100,0.00,40.00,0,-999,0,0.00
2013-3-9,58,49,44,-100,-100,-100,0,0,100,0.00,40.00,0,-999,0,0.00
2013-3-10,73,51,38,-100,-100,-100,0,0,100,0.00,40.00,0,-999,0,0.00
2013-3-11,76,55,40,-100,-100,-100,0,0,100,0.00,40.00,0,-999,0,0.00
2013-3-12,81,61,44,-100,-100,-100,0,0,100,0.00,40.00,0,-999,0,0.00
2013-3-13,86,66,47,-100,-100,-100,0,0,100,0.00,40.00,0,-999,0,0.00
2013-3-14,88,67,47,-100,-100,-100,0,0,100,0.00,40.00,0,-999,0,0.00
2013-3-15,80,66,52,-100,-100,-100,0,0,100,0.00,40.00,0,-999,0,0.00
2013-3-16,83,63,48,-100,-100,-100,0,0,100,0.00,40.00,0,-999,0,0.00
2013-3-17,78,60,50,-100,-100,-100,0,0,100,0.00,40.00,0,-999,0,0.00
2013-3-18,77,60,43,-100,-100,-100,0,0,100,0.00,40.00,0,-999,0,0.00
2013-3-19,80,64,51,-100,-100,-100,0,0,100,0.00,40.00,0,-999,0,0.00
2013-3-20,75,64,56,-100,-100,-100,0,0,100,0.00,40.00,0,-999,0,0.00
2013-3-21,73,60,52,-100,-100,-100,0,0,100,0.00,40.00,0,-999,0,0.00
2013-3-22,71,54,45,-100,-100,-100,0,0,100,0.00,40.00,0,-999,0,0.00
2013-3-23,70,56,43,-100,-100,-100,0,0,100,0.00,40.00,0,-999,0,0.00
2013-3-24,80,59,41,-100,-100,-100,0,0,100,0.00,40.00,0,-999,0,0.00
2013-3-25,80,61,45,-100,-100,-100,0,0,100,0.00,40.00,0,-999,0,0.00
2013-3-26,83,65,47,-100,-100,-100,0,0,100,0.00,40.00,0,-999,0,0.00
2013-3-27,82,62,48,-100,-100,-100,0,0,100,0.00,40.00,0,-999,0,0.00
2013-3-28,79,63,50,-100,-100,-100,0,0,100,0.00,40.00,0,-999,0,0.00
2013-3-29,87,69,50,-100,-100,-100,0,0,100,0.00,40.00,0,-999,0,0.00
2013-3-30,89,75,58,-100,-100,-100,0,0,100,0.00,40.00,0,-999,0,0.00
2013-3-31,78,69,60,-100,-100,-100,0,0,100,0.00,40.00,0,-999,0,0.00
2013-4-1,78,68,55,-100,-100,-100,0,0,100,0.00,40.00,0,-999,0,0.00
2013-4-2,80,68,55,-100,-100,-100,0,0,100,0.00,40.00,0,-999,0,0.00
2013-4-3,84,70,54,-100,-100,-100,0,0,100,0.00,40.00,0,-999,0,0.00
2013-4-4,78,68,63,-100,-100,-100,0,0,100,0.00,40.00,0,-999,0,0.00
2013-4-5,78,68,62,-100,-100,-100,0,0,100,0.00,40.00,0,-999,0,0.00
2013-4-6,81,67,54,-100,-100,-100,0,0,100,0.00,40.00,0,-999,0,0.00
2013-4-7,83,70,57,-100,-100,-100,0,0,100,0.00,40.00,0,-999,0,0.00
2013-4-8,67,60,56,-100,-100,-100,0,0,100,0.00,40.00,0,-999,0,0.00
2013-4-9,76,63,47,-100,-100,-100,0,0,100,0.00,40.00,0,-999,0,0.00
2013-4-10,83,62,48,-100,-100,-100,0,0,100,0.00,40.00,0,-999,0,0.00
2013-4-11,85,72,57,-100,-100,-100,0,0,100,0.00,40.00,0,-999,0,0.00
2013-4-12,87,73,58,-100,-100,-100,0,0,100,0.00,40.00,0,-999,0,0.00
2013-4-13,90,71,56,-100,-100,-100,0,0,100,0.00,40.00,0,-999,0,0.00
2013-4-14,83,68,58,-100,-100,-100,0,0,100,0.00,40.00,0,-999,0,0.00
2013-4-15,75,64,54,-100,-100,-100,0,0,100,0.00,40.00,0,-999,0,0.00
2013-4-16,69,61,49,-100,-100,-100,0,0,100,0.00,40.00,0,-999,0,0.00
2013-4-17,76,58,47,-100,-100,-100,0,0,100,0.00,40.00,0,-999,0,0.00
2013-4-18,80,62,46,-100,-100,-100,0,0,100,0.00,40.00,0,-999,0,0.00
2013-4-19,88,70,51,-100,-100,-100,0,0,100,0.00,40.00,0,-999,0,0.00
2013-4-20,89,74,58,-100,-100,-100,0,0,100,0.00,40.00,0,-999,0,0.00
2013-4-21,93,76,56,-100,-100,-100,0,0,100,0.00,40.00,0,-999,0,0.00
2013-4-22,94,78,56,-100,-100,-100,0,0,100,0.00,40.00,0,-999,0,0.00
2013-4-23,91,78,63,-100,-100,-100,0,0,100,0.00,40.00,0,-999,0,0.00
2013-4-24,93,74,58,-100,-100,-100,0,0,100,0.00,40.00,0,-999,0,0.00
2013-4-25,84,72,60,-100,-100,-100,0,0,100,0.00,40.00,0,-999,0,0.00
2013-4-26,91,73,60,-100,-100,-100,0,0,100,0.00,40.00,0,-999,0,0.00
2013-4-27,94,82,59,-100,-100,-100,0,0,100,0.00,40.00,0,-999,0,0.00
2013-4-28,98,79,60,-100,-100,-100,0,0,100,0.00,40.00,0,-999,0,0.00
2013-4-29,98,80,62,-100,-100,-100,0,0,100,0.00,40.00,0,-999,0,0.00
2013-4-30,93,80,72,-100,-100,-100,0,0,100,0.00,40.00,0,-999,0,0.00
2013-5-1,92,77,62,-100,-100,-100,0,0,100,0.00,40.00,0,-999,0,0.00
2013-5-2,95,83,62,-100,-100,-100,0,0,100,0.00,40.00,0,-999,0,0.00
2013-5-3,95,78,59,-100,-100,-100,0,0,100,0.00,40.00,0,-999,0,0.00
2013-5-4,98,84,68,-100,-100,-100,0,0,100,0.00,40.00,0,-999,0,0.00
2013-5-5,86,70,60,-100,-100,-100,0,0,100,0.00,40.00,0,-999,0,0.00
2013-5-6,82,73,66,-100,-100,-100,0,0,100,0.00,40.00,0,-999,0,0.00
2013-5-7,75,68,62,-100,-100,-100,0,0,100,0.00,40.00,0,-999,0,0.00
2013-5-8,80,71,58,-100,-100,-100,0,0,100,0.00,40.00,0,-999,0,0.00
2013-5-9,87,72,62,-100,-100,-100,0,0,100,0.00,40.00,0,-999,0,0.00
2013-5-10,92,80,65,-100,-100,-100,0,0,100,0.00,40.00,0,-999,0,0.00
2013-5-11,97,80,65,-100,-100,-100,0,0,100,0.00,40.00,0,-999,0,0.00
2013-5-12,102,83,72,-100,-100,-100,0,0,100,0.00,40.00,0,-999,0,0.00
2013-5-13,102,84,69,-100,-100,-100,0,0,100,0.00,40.00,0,-999,0,0.00
2013-5-14,94,82,71,-100,-100,-100,0,0,100,0.00,40.00,0,-999,0,0.00
2013-5-15,95,80,70,-100,-100,-100,0,0,100,0.00,40.00,0,-999,0,0.00
2013-5-16,80,73,63,-100,-100,-100,0,0,100,0.00,40.00,0,-999,0,0.00
2013-5-17,84,72,61,-100,-100,-100,0,0,100,0.00,40.00,0,-999,0,0.00
2013-5-18,87,71,57,-100,-100,-100,0,0,100,0.00,40.00,0,-999,0,0.00
2013-5-19,91,76,64,-100,-100,-100,0,0,100,0.00,40.00,0,-999,0,0.00
2013-5-20,95,80,62,-100,-100,-100,0,0,100,0.00,40.00,0,-999,0,0.00
2013-5-21,95,84,65,-100,-100,-100,0,0,100,0.00,40.00,0,-999,0,0.00
2013-5-22,78,69,60,-100,-100,-100,0,0,100,0.00,40.00,0,-999,0,0.00
2013-5-23,82,65,52,-100,-100,-100,0,0,100,0.00,40.00,0,-999,0,0.00
2013-5-24,87,72,57,-100,-100,-100,0,0,100,0.00,40.00,0,-999,0,0.00
2013-5-25,88,74,57,-100,-100,-100,0,0,100,0.00,40.00,0,-999,0,0.00
2013-5-26,88,70,61,-100,-100,-100,0,0,100,0.00,40.00,0,-999,0,0.00
2013-5-27,83,73,61,-100,-100,-100,0,0,100,0.00,40.00,0,-999,0,0.00
2013-5-28,87,75,65,-100,-100,-100,0,0,100,0.00,40.00,0,-999,0,0.00
2013-5-29,91,74,64,-100,-100,-100,0,0,100,0.00,40.00,0,-999,0,0.00
2013-5-30,93,77,65,-100,-100,-100,0,0,100,0.00,40.00,0,-999,0,0.00
2013-5-31,96,77,62,-100,-100,-100,0,0,100,0.00,40.00,0,-999,0,0.00
2013-6-1,102,90,67,-100,-100,-100,0,0,100,0.00,40.00,0,-999,0,0.00
2013-6-2,105,92,72,-100,-100,-100,0,0,100,0.00,40.00,0,-999,0,0.00
2013-6-3,98,86,69,-100,-100,-100,0,0,100,0.00,40.00,0,-999,0,0.00
2013-6-4,98,83,69,-100,-100,-100,0,0,100,0.00,40.00,0,-999,0,0.00
2013-6-5,98,86,68,-100,-100,-100,0,0,100,0.00,40.00,0,-999,0,0.00
2013-6-6,100,83,69,-100,-100,-100,0,0,100,0.00,40.00,0,-999,0,0.00
2013-6-7,103,88,73,-100,-100,-100,0,0,100,0.00,40.00,0,-999,0,0.00
2013-6-8,109,94,80,-100,-100,-100,0,0,100,0.00,40.00,0,-999,0,0.00
2013-6-9,105,90,76,-100,-100,-100,0,0,100,0.00,40.00,0,-999,0,0.00
2013-6-10,91,76,65,-100,-100,-100,0,0,100,0.00,40.00,0,-999,0,0.00
2013-6-11,98,80,66,-100,-100,-100,0,0,100,0.00,40.00,0,-999,0,0.00
2013-6-12,98,83,70,-100,-100,-100,0,0,100,0.00,40.00,0,-999,0,0.00
2013-6-13,92,79,65,-100,-100,-100,0,0,100,0.00,40.00,0,-999,0,0.00
2013-6-14,94,78,63,-100,-100,-100,0,0,100,0.00,40.00,0,-999,0,0.00
2013-6-15,99,86,63,-100,-100,-100,0,0,100,0.00,40.00,0,-999,0,0.00
2013-6-16,95,82,68,-100,-100,-100,0,0,100,0.00,40.00,0,-999,0,0.00
2013-6-17,96,83,69,-100,-100,-100,0,0,100,0.00,40.00,0,-999,0,0.00
2013-6-18,91,77,63,-100,-100,-100,0,0,100,0.00,40.00,0,-999,0,0.00
2013-6-19,87,76,61,-100,-100,-100,0,0,100,0.00,40.00,0,-999,0,0.00
2013-6-20,82,70,62,-100,-100,-100,0,0,100,0.00,40.00,0,-999,0,0.00
2013-6-22,98,93,86,-100,-100,-100,0,0,100,0.00,40.00,0,-999,0,0.00
2013-6-23,88,79,68,-100,-100,-100,0,0,100,0.00,40.00,0,-999,0,0.00
2013-6-24,88,82,73,-100,-100,-100,0,0,100,0.00,40.00,0,-999,0,0.00
2013-6-25,97,87,72,-100,-100,-100,0,0,100,0.00,40.00,0,-999,0,0.00
2013-6-26,101,83,73,-100,-100,-100,0,0,100,0.00,40.00,0,-999,0,0.00
2013-6-27,103,88,74,-100,-100,-100,0,0,100,0.00,40.00,0,-999,0,0.00
2013-6-28,107,90,75,-100,-100,-100,0,0,100,0.00,40.00,0,-999,0,0.00
2013-6-29,109,90,76,-100,-100,-100,0,0,100,0.00,40.00,0,-999,0,0.00
2013-6-30,111,91,80,-100,-100,-100,0,0,100,0.00,40.00,0,-999,0,0.00
2013-7-1,105,93,80,-100,-100,-100,0,0,100,0.00,40.00,0,-999,0,0.00
2013-7-2,111,97,80,-100,-100,-100,0,0,100,0.00,40.00,0,-999,0,0.00
2013-7-3,105,94,80,-100,-100,-100,0,0,100,0.00,40.00,0,-999,0,0.00
2013-7-4,109,99,84,-100,-100,-100,0,0,100,0.00,40.00,0,-999,0,0.00
2013-7-5,107,92,82,-100,-100,-100,0,0,100,0.00,40.00,0,-999,0,0.00
2013-7-6,102,81,72,-100,-100,-100,0,0,100,0.00,40.00,0,-999,0,0.00
2013-7-7,107,91,70,-100,-100,-100,0,0,100,0.00,40.00,0,-999,0,0.00
2013-7-8,108,87,73,-100,-100,-100,0,0,100,0.00,40.00,0,-999,0,0.00
2013-7-9,107,93,75,-100,-100,-100,0,0,100,0.00,40.00,0,-999,0,0.00
2013-7-10,105,87,75,-100,-100,-100,0,0,100,0.00,40.00,0,-999,0,0.00
2013-7-11,104,88,77,-100,-100,-100,0,0,100,0.00,40.00,0,-999,0,0.00
2013-7-12,102,85,71,-100,-100,-100,0,0,100,0.00,40.00,0,-999,0,0.00
2013-7-13,104,88,70,-100,-100,-100,0,0,100,0.00,40.00,0,-999,0,0.00
2013-7-14,105,86,71,-100,-100,-100,0,0,100,0.00,40.00,0,-999,0,0.00
2013-7-15,101,87,76,-100,-100,-100,0,0,100,0.00,40.00,0,-999,0,0.00
2013-7-16,98,80,65,-100,-100,-100,0,0,100,0.00,40.00,0,-999,0,0.00
2013-7-17,99,84,66,-100,-100,-100,0,0,100,0.00,40.00,0,-999,0,0.00
2013-7-18,101,84,68,-100,-100,-100,0,0,100,0.00,40.00,0,-999,0,0.00
2013-7-19,102,90,77,-100,-100,-100,0,0,100,0.00,40.00,0,-999,0,0.00
2013-7-20,105,91,74,-100,-100,-100,0,0,100,0.00,40.00,0,-999,0,0.00
2013-7-21,106,94,81,-100,-100,-100,0,0,100,0.00,40.00,0,-999,0,0.00
2013-7-22,98,88,81,-100,-100,-100,0,0,100,0.00,40.00,0,-999,0,0.00
2013-7-23,101,89,80,-100,-100,-100,0,0,100,0.00,40.00,0,-999,0,0.00
2013-7-24,103,89,76,-100,-100,-100,0,0,100,0.00,40.00,0,-999,0,0.00
2013-7-25,104,94,78,-100,-100,-100,0,0,100,0.00,40.00,0,-999,0,0.00
2013-7-26,106,91,77,-100,-100,-100,0,0,100,0.00,40.00,0,-999,0,0.00
2013-7-27,103,93,80,-100,-100,-100,0,0,100,0.00,40.00,0,-999,0,0.00
2013-7-28,104,87,76,-100,-100,-100,0,0,100,0.00,40.00,0,-999,0,0.00
2013-7-29,100,83,72,-100,-100,-100,0,0,100,0.00,40.00,0,-999,0,0.00
2013-7-30,96,85,71,-100,-100,-100,0,0,100,0.00,40.00,0,-999,0,0.00
2013-7-31,98,85,73,-100,-100,-100,0,0,100,0.00,40.00,0,-999,0,0.00
2013-8-1,97,83,67,-100,-100,-100,0,0,100,0.00,40.00,0,-999,0,0.00
2013-8-2,96,83,67,-100,-100,-100,0,0,100,0.00,40.00,0,-999,0,0.00
2013-8-3,102,87,70,-100,-100,-100,0,0,100,0.00,40.00,0,-999,0,0.00
2013-8-4,98,83,67,-100,-100,-100,0,0,100,0.00,40.00,0,-999,0,0.00
2013-8-5,98,85,70,-100,-100,-100,0,0,100,0.00,40.00,0,-999,0,0.00
2013-8-6,98,82,67,-100,-100,-100,0,0,100,0.00,40.00,0,-999,0,0.00
2013-8-7,93,80,69,-100,-100,-100,0,0,100,0.00,40.00,0,-999,0,0.00
2013-8-8,94,79,67,-100,-100,-100,0,0,100,0.00,40.00,0,-999,0,0.00
2013-8-9,96,83,66,-100,-100,-100,0,0,100,0.00,40.00,0,-999,0,0.00
2013-8-10,96,79,69,-100,-100,-100,0,0,100,0.00,40.00,0,-999,0,0.00
2013-8-11,96,81,68,-100,-100,-100,0,0,100,0.00,40.00,0,-999,0,0.00
2013-8-12,99,81,69,-100,-100,-100,0,0,100,0.00,40.00,0,-999,0,0.00
2013-8-13,103,84,69,-100,-100,-100,0,0,100,0.00,40.00,0,-999,0,0.00
2013-8-14,103,86,69,-100,-100,-100,0,0,100,0.00,40.00,0,-999,0,0.00
2013-8-15,105,84,69,-100,-100,-100,0,0,100,0.00,40.00,0,-999,0,0.00
2013-8-16,103,86,72,-100,-100,-100,0,0,100,0.00,40.00,0,-999,0,0.00
2013-8-17,105,84,73,-100,-100,-100,0,0,100,0.00,40.00,0,-999,0,0.00
2013-8-18,100,89,73,-100,-100,-100,0,0,100,0.00,40.00,0,-999,0,0.00
2013-8-19,109,95,77,-100,-100,-100,0,0,100,0.00,40.00,0,-999,0,0.00
2013-8-20,106,92,74,-100,-100,-100,0,0,100,0.00,40.00,0,-999,0,0.00
2013-8-21,104,89,73,-100,-100,-100,0,0,100,0.00,40.00,0,-999,0,0.00
2013-8-22,102,88,70,-100,-100,-100,0,0,100,0.00,40.00,0,-999,0,0.00
2013-8-23,98,81,68,-100,-100,-100,0,0,100,0.00,40.00,0,-999,0,0.00
2013-8-24,100,84,65,-100,-100,-100,0,0,100,0.00,40.00,0,-999,0,0.00
2013-8-25,98,82,70,-100,-100,-100,0,0,100,0.00,40.00,0,-999,0,0.00
2013-8-26,98,81,68,-100,-100,-100,0,0,100,0.00,40.00,0,-999,0,0.00
2013-8-27,89,77,72,-100,-100,-100,0,0,100,0.00,40.00,0,-999,0,0.00
2013-8-28,101,90,81,-100,-100,-100,0,0,100,0.00,40.00,0,-999,0,0.00
2013-8-29,98,82,72,-100,-100,-100,0,0,100,0.00,40.00,0,-999,0,0.00
2013-8-30,101,87,70,-100,-100,-100,0,0,100,0.00,40.00,0,-999,0,0.00
2013-8-31,99,90,77,-100,-100,-100,0,0,100,0.00,40.00,0,-999,0,0.00
2013-9-1,101,85,75,-100,-100,-100,0,0,100,0.00,40.00,0,-999,0,0.00
2013-9-2,101,87,76,-100,-100,-100,0,0,100,0.00,40.00,0,-999,0,0.00
2013-9-3,96,87,76,-100,-100,-100,0,0,100,0.00,40.00,0,-999,0,0.00
2013-9-4,98,83,70,-100,-100,-100,0,0,100,0.00,40.00,0,-999,0,0.00
2013-9-5,98,80,72,-100,-100,-100,0,0,100,0.00,40.00,0,-999,0,0.00
2013-9-6,97,82,69,-100,-100,-100,0,0,100,0.00,40.00,0,-999,0,0.00
2013-9-7,104,92,69,-100,-100,-100,0,0,100,0.00,40.00,0,-999,0,0.00
2013-9-8,103,87,74,-100,-100,-100,0,0,100,0.00,40.00,0,-999,0,0.00
2013-9-9,100,94,80,-100,-100,-100,0,0,100,0.00,40.00,0,-999,0,0.00
2013-9-10,104,90,73,-100,-100,-100,0,0,100,0.00,40.00,0,-999,0,0.00
2013-9-11,93,78,68,-100,-100,-100,0,0,100,0.00,40.00,0,-999,0,0.00
2013-9-12,93,79,66,-100,-100,-100,0,0,100,0.00,40.00,0,-999,0,0.00
2013-9-13,99,88,69,-100,-100,-100,0,0,100,0.00,40.00,0,-999,0,0.00
2013-9-14,98,86,73,-100,-100,-100,0,0,100,0.00,40.00,0,-999,0,0.00
2013-9-15,97,81,70,-100,-100,-100,0,0,100,0.00,40.00,0,-999,0,0.00
2013-9-16,95,82,68,-100,-100,-100,0,0,100,0.00,40.00,0,-999,0,0.00
2013-9-17,92,78,69,-100,-100,-100,0,0,100,0.00,40.00,0,-999,0,0.00
2013-9-18,77,69,63,-100,-100,-100,0,0,100,0.00,40.00,0,-999,0,0.00
2013-9-19,97,85,62,-100,-100,-100,0,0,100,0.00,40.00,0,-999,0,0.00
2013-9-20,96,86,62,-100,-100,-100,0,0,100,0.00,40.00,0,-999,0,0.00
2013-9-21,88,76,65,-100,-100,-100,0,0,100,0.00,40.00,0,-999,0,0.00
2013-9-22,80,71,60,-100,-100,-100,0,0,100,0.00,40.00,0,-999,0,0.00
2013-9-23,89,76,63,-100,-100,-100,0,0,100,0.00,40.00,0,-999,0,0.00
2013-9-24,93,82,63,-100,-100,-100,0,0,100,0.00,40.00,0,-999,0,0.00
2013-9-25,79,69,62,-100,-100,-100,0,0,100,0.00,40.00,0,-999,0,0.00
2013-9-26,77,68,62,-100,-100,-100,0,0,100,0.00,40.00,0,-999,0,0.00
2013-9-27,84,74,51,-100,-100,-100,0,0,100,0.00,40.00,0,-999,0,0.00
2013-9-28,90,73,53,-100,-100,-100,0,0,100,0.00,40.00,0,-999,0,0.00
2013-9-29,91,70,55,-100,-100,-100,0,0,100,0.00,40.00,0,-999,0,0.00
2013-9-30,87,76,64,-100,-100,-100,0,0,100,0.00,40.00,0,-999,0,0.00
2013-10-1,83,77,69,-100,-100,-100,0,0,100,0.00,40.00,0,-999,0,0.00
2013-10-2,87,72,62,-100,-100,-100,0,0,100,0.00,40.00,0,-999,0,0.00
2013-10-3,80,67,58,-100,-100,-100,0,0,100,0.00,40.00,0,-999,0,0.00
2013-10-4,85,72,51,-100,-100,-100,0,0,100,0.00,40.00,0,-999,0,0.00
2013-10-5,89,75,51,-100,-100,-100,0,0,100,0.00,40.00,0,-999,0,0.00
2013-10-6,91,70,55,-100,-100,-100,0,0,100,0.00,40.00,0,-999,0,0.00
2013-10-7,90,87,80,-100,-100,-100,0,0,100,0.00,40.00,0,-999,0,0.00
2013-10-8,87,70,51,-100,-100,-100,0,0,100,0.00,40.00,0,-999,0,0.00
2013-10-9,67,62,54,-100,-100,-100,0,0,100,0.00,40.00,0,-999,0,0.00
2013-10-10,77,61,52,-100,-100,-100,0,0,100,0.00,40.00,0,-999,0,0.00
2013-10-11,81,62,51,-100,-100,-100,0,0,100,0.00,40.00,0,-999,0,0.00
2013-10-12,84,78,55,-100,-100,-100,0,0,100,0.00,40.00,0,-999,0,0.00
2013-10-13,76,60,53,-100,-100,-100,0,0,100,0.00,40.00,0,-999,0,0.00
2013-10-14,83,66,52,-100,-100,-100,0,0,100,0.00,40.00,0,-999,0,0.00
2013-10-15,85,64,51,-100,-100,-100,0,0,100,0.00,40.00,0,-999,0,0.00
2013-10-16,88,65,52,-100,-100,-100,0,0,100,0.00,40.00,0,-999,0,0.00
2013-10-17,87,61,56,-100,-100,-100,0,0,100,0.00,40.00,0,-999,0,0.00
2013-10-18,88,74,55,-100,-100,-100,0,0,100,0.00,40.00,0,-999,0,0.00
2013-10-19,90,64,53,-100,-100,-100,0,0,100,0.00,40.00,0,-999,0,0.00
2013-10-20,87,65,54,-100,-100,-100,0,0,100,0.00,40.00,0,-999,0,0.00
2013-10-21,88,76,53,-100,-100,-100,0,0,100,0.00,40.00,0,-999,0,0.00
2013-10-22,89,70,56,-100,-100,-100,0,0,100,0.00,40.00,0,-999,0,0.00
2013-10-23,85,71,54,-100,-100,-100,0,0,100,0.00,40.00,0,-999,0,0.00
2013-10-24,86,70,54,-100,-100,-100,0,0,100,0.00,40.00,0,-999,0,0.00
2013-10-25,84,62,52,-100,-100,-100,0,0,100,0.00,40.00,0,-999,0,0.00
2013-10-26,86,72,51,-100,-100,-100,0,0,100,0.00,40.00,0,-999,0,0.00
2013-10-27,84,65,55,-100,-100,-100,0,0,100,0.00,40.00,0,-999,0,0.00
2013-10-28,64,60,58,-100,-100,-100,0,0,100,0.00,40.00,0,-999,0,0.00
2013-10-29,71,57,48,-100,-100,-100,0,0,100,0.00,40.00,0,-999,0,0.00
2013-10-30,73,60,47,-100,-100,-100,0,0,100,0.00,40.00,0,-999,0,0.00
2013-10-31,76,61,48,-100,-100,-100,0,0,100,0.00,40.00,0,-999,0,0.00
2013-11-1,81,61,47,-100,-100,-100,0,0,100,0.00,40.00,0,-999,0,0.00
2013-11-2,83,70,49,-100,-100,-100,0,0,100,0.00,40.00,0,-999,0,0.00
2013-11-3,67,57,54,-100,-100,-100,0,0,100,0.00,40.00,0,-999,0,0.00
2013-11-4,69,57,49,-100,-100,-100,0,0,100,0.00,40.00,0,-999,0,0.00
2013-11-5,75,62,45,-100,-100,-100,0,0,100,0.00,40.00,0,-999,0,0.00
2013-11-6,79,60,43,-100,-100,-100,0,0,100,0.00,40.00,0,-999,0,0.00
2013-11-7,80,66,51,-100,-100,-100,0,0,100,0.00,40.00,0,-999,0,0.00
2013-11-8,78,57,46,-100,-100,-100,0,0,100,0.00,40.00,0,-999,0,0.00
2013-11-9,83,70,51,-100,-100,-100,0,0,100,0.00,40.00,0,-999,0,0.00
2013-11-10,83,67,50,-100,-100,-100,0,0,100,0.00,40.00,0,-999,0,0.00
2013-11-11,79,73,54,-100,-100,-100,0,0,100,0.00,40.00,0,-999,0,0.00
2013-11-12,69,61,54,-100,-100,-100,0,0,100,0.00,40.00,0,-999,0,0.00
2013-11-13,75,63,51,-100,-100,-100,0,0,100,0.00,40.00,0,-999,0,0.00
2013-11-14,79,64,52,-100,-100,-100,0,0,100,0.00,40.00,0,-999,0,0.00
2013-11-15,72,57,48,-100,-100,-100,0,0,100,0.00,40.00,0,-999,0,0.00
2013-11-16,58,52,47,-100,-100,-100,0,0,100,0.00,40.00,0,-999,0,0.00
2013-11-17,56,50,46,-100,-100,-100,0,0,100,0.00,40.00,0,-999,0,0.00
2013-11-18,71,60,48,-100,-100,-100,0,0,100,0.00,40.00,0,-999,0,0.00
2013-11-19,66,58,50,-100,-100,-100,0,0,100,0.00,40.00,0,-999,0,0.00
2013-11-20,73,64,58,-100,-100,-100,0,0,100,0.00,40.00,0,-999,0,0.00
2013-11-22,58,56,54,-100,-100,-100,0,0,100,0.00,40.00,0,-999,0,0.00
2013-11-23,66,54,48,-100,-100,-100,0,0,100,0.00,40.00,0,-999,0,0.00
2013-11-24,69,58,51,-100,-100,-100,0,0,100,0.00,40.00,0,-999,0,0.00
2013-11-25,69,58,45,-100,-100,-100,0,0,100,0.00,40.00,0,-999,0,0.00
2013-11-26,48,48,47,-100,-100,-100,0,0,100,0.00,40.00,0,-999,0,0.00
2013-11-27,76,63,53,-100,-100,-100,0,0,100,0.00,40.00,0,-999,0,0.00
2013-11-28,74,55,50,-100,-100,-100,0,0,100,0.00,40.00,0,-999,0,0.00
2013-11-29,66,56,51,-100,-100,-100,0,0,100,0.00,40.00,0,-999,0,0.00
2013-11-30,73,58,45,-100,-100,-100,0,0,100,0.00,40.00,0,-999,0,0.00
2013-12-1,72,57,46,-100,-100,-100,0,0,100,0.00,40.00,0,-999,0,0.00
2013-12-2,70,60,45,-100,-100,-100,0,0,100,0.00,40.00,0,-999,0,0.00
2013-12-3,56,50,43,-100,-100,-100,0,0,100,0.00,40.00,0,-999,0,0.00